Time;durP1;ratioP1;P1;durP2;ratioP2;P2;SDS_P1;SDS_P2;PMS_P1;PMS_P2;Temp;Humidity;BMP_temperature;BMP_pressure;BME280_temperature;BME280_humidity;BME280_pressure;Samples;Min_cycle;Max_cycle;Signal;HPM_P1;HPM_P2
2022/04/28 00:00:45;;;;;;;14.23;6.67;;;;;;;8.76;71.97;101384.81;1824862;78;20946;-80
2022/04/28 00:03:12;;;;;;;7.35;6.17;;;;;;;8.74;72.09;101387.06;1825329;78;21412;-78
2022/04/28 00:05:41;;;;;;;7.92;6.85;;;;;;;8.74;72.27;101390.98;1823841;78;21377;-81
2022/04/28 00:08:08;;;;;;;8.48;5.15;;;;;;;8.71;72.44;101393.28;1821526;78;20876;-80
2022/04/28 00:10:36;;;;;;;10.53;4.90;;;;;;;8.70;72.50;101398.12;1821445;78;20901;-80
2022/04/28 00:13:05;;;;;;;10.38;5.80;;;;;;;8.69;72.46;101397.28;1821487;78;20891;-81
2022/04/28 00:15:33;;;;;;;8.10;4.70;;;;;;;8.68;72.42;101398.18;1821483;78;20923;-80
2022/04/28 00:17:59;;;;;;;9.40;4.90;;;;;;;8.68;72.41;101402.56;1821604;78;21142;-81
2022/04/28 00:20:26;;;;;;;10.43;4.90;;;;;;;8.67;72.48;101400.41;1821466;78;21384;-80
2022/04/28 00:22:53;;;;;;;8.48;4.85;;;;;;;8.67;72.29;101404.34;1821829;78;20947;-81
2022/04/28 00:25:22;;;;;;;16.52;5.85;;;;;;;8.66;71.99;101404.38;1821424;78;21409;-80
2022/04/28 00:27:50;;;;;;;8.80;5.20;;;;;;;8.63;71.95;101407.13;1821457;78;21329;-81
2022/04/28 00:30:17;;;;;;;6.42;5.12;;;;;;;8.60;71.82;101400.70;1821725;78;21112;-81
2022/04/28 00:32:43;;;;;;;9.25;4.87;;;;;;;8.56;72.00;101406.52;1821504;78;20950;-79
2022/04/28 00:35:11;;;;;;;5.53;4.45;;;;;;;8.55;72.13;101407.41;1824432;78;20963;-83
2022/04/28 00:37:38;;;;;;;11.53;5.72;;;;;;;8.50;71.95;101409.36;1822475;78;20934;-80
2022/04/28 00:40:07;;;;;;;7.28;5.40;;;;;;;8.46;71.95;101411.70;1822173;78;20955;-80
2022/04/28 00:42:35;;;;;;;8.13;5.30;;;;;;;8.42;71.86;101407.48;1821513;78;20987;-80
2022/04/28 00:45:03;;;;;;;5.92;5.22;;;;;;;8.36;71.95;101416.83;1821494;78;20943;-81
2022/04/28 00:53:00;;;;;;;7.12;5.15;;;;;;;8.17;72.58;101419.30;1821585;78;20907;-81
2022/04/28 00:55:28;;;;;;;7.03;4.33;;;;;;;8.13;72.87;101415.09;1821601;78;21211;-80
2022/04/28 00:57:56;;;;;;;6.40;4.10;;;;;;;8.10;72.89;101416.06;1790100;78;21313;-81
2022/04/28 01:00:24;;;;;;;6.97;4.37;;;;;;;8.07;72.92;101417.03;1821433;78;20950;-80
2022/04/28 01:02:50;;;;;;;8.35;4.47;;;;;;;8.03;72.98;101416.73;1789917;78;20942;-81
2022/04/28 01:05:19;;;;;;;10.60;4.83;;;;;;;8.03;73.05;101410.67;1823034;78;20879;-80
2022/04/28 01:07:47;;;;;;;4.70;4.28;;;;;;;8.03;73.03;101407.59;1824965;78;20867;-80
2022/04/28 01:10:15;;;;;;;5.78;4.42;;;;;;;8.02;73.01;101402.42;1824855;78;20954;-80
2022/04/28 01:12:43;;;;;;;9.45;5.12;;;;;;;8.01;73.20;101402.03;1824943;78;20951;-80
2022/04/28 01:15:12;;;;;;;7.30;5.22;;;;;;;8.00;73.28;101402.92;1824922;78;21397;-79
2022/04/28 01:17:41;;;;;;;13.38;6.33;;;;;;;8.00;73.28;101410.30;1825007;78;20895;-80
2022/04/28 01:20:10;;;;;;;6.80;4.67;;;;;;;7.97;73.28;101413.04;1824841;78;21228;-80
2022/04/28 01:22:40;;;;;;;6.83;4.70;;;;;;;7.99;73.34;101410.37;1824865;78;20888;-79
2022/04/28 01:25:11;;;;;;;7.22;5.05;;;;;;;8.00;73.22;101402.47;1824552;78;20918;-81
2022/04/28 01:27:39;;;;;;;8.15;5.25;;;;;;;8.00;72.88;101410.30;1824946;78;20923;-80
2022/04/28 01:30:18;;;;;;;6.97;4.62;;;;;;;7.96;72.72;101409.16;1824884;78;20888;-80
2022/04/28 01:32:44;;;;;;;5.60;4.55;;;;;;;7.91;72.75;101405.88;1824678;78;21259;-78
2022/04/28 01:35:13;;;;;;;6.35;4.62;;;;;;;7.87;72.95;101409.92;1825322;78;21472;-80
2022/04/28 01:37:41;;;;;;;6.92;4.62;;;;;;;7.86;72.91;101405.59;1825120;78;21329;-80
2022/04/28 01:40:16;;;;;;;7.30;4.78;;;;;;;7.82;72.97;101411.82;1824397;78;20890;-80
2022/04/28 01:42:43;;;;;;;9.68;4.58;;;;;;;7.79;73.34;101402.80;1824540;78;21330;-82
2022/04/28 01:45:11;;;;;;;5.40;4.85;;;;;;;7.77;73.39;101406.38;1824828;78;21218;-82
2022/04/28 01:47:39;;;;;;;7.10;4.60;;;;;;;7.72;73.21;101402.63;1822240;78;20876;-80
2022/04/28 01:50:24;;;;;;;;;;;;;;;7.69;73.42;101401.41;1826563;78;21473;-80
2022/04/28 01:56:04;;;;;;;6.65;4.55;;;;;;;7.58;73.60;101403.55;1821634;78;20969;-81
2022/04/28 01:58:40;;;;;;;5.42;4.25;;;;;;;7.56;74.13;101405.36;1777971;78;20931;-81
2022/04/28 02:01:10;;;;;;;6.95;4.65;;;;;;;7.60;74.21;101400.44;1826465;77;20962;-80
2022/04/28 02:03:36;;;;;;;7.45;4.47;;;;;;;7.63;73.95;101402.96;1827557;78;20904;-81
2022/04/28 02:06:03;;;;;;;4.75;4.20;;;;;;;7.59;73.79;101404.81;1824601;78;20919;-80
2022/04/28 02:08:31;;;;;;;4.47;4.00;;;;;;;7.60;73.83;101403.05;1822868;78;20986;-81
2022/04/28 02:11:00;;;;;;;7.72;4.40;;;;;;;7.61;73.73;101408.69;1821530;78;21245;-80
2022/04/28 02:13:29;;;;;;;6.50;4.22;;;;;;;7.61;73.57;101405.61;1816472;78;20903;-80
2022/04/28 02:16:13;;;;;;;10.15;5.65;;;;;;;7.60;73.29;101406.97;1759869;78;20943;-79
2022/04/28 02:18:42;;;;;;;6.00;4.47;;;;;;;7.59;73.23;101411.80;1818842;78;20974;-81
2022/04/28 02:21:10;;;;;;;9.85;4.58;;;;;;;7.54;73.03;101414.57;1821611;78;21398;-81
2022/04/28 02:23:38;;;;;;;7.67;6.10;;;;;;;7.50;73.21;101412.97;1821472;78;21314;-81
2022/04/28 02:26:05;;;;;;;6.58;5.58;;;;;;;7.47;73.47;101420.45;1821559;78;20923;-80
2022/04/28 02:28:34;;;;;;;5.83;5.10;;;;;;;7.46;73.49;101419.19;1821509;78;20888;-81
2022/04/28 02:31:02;;;;;;;5.95;4.65;;;;;;;7.45;73.56;101416.20;1821484;78;20879;-80
2022/04/28 02:33:30;;;;;;;6.78;5.83;;;;;;;7.42;73.25;101418.89;1821494;78;20943;-80
2022/04/28 02:36:05;;;;;;;7.58;5.37;;;;;;;7.37;73.21;101420.35;1820965;78;21147;-80
2022/04/28 02:38:34;;;;;;;6.28;5.22;;;;;;;7.34;73.27;101421.77;1821222;78;20989;-80
2022/04/28 02:41:01;;;;;;;13.50;5.33;;;;;;;7.30;73.45;101426.69;1821468;78;20923;-81
2022/04/28 02:43:29;;;;;;;7.75;4.12;;;;;;;7.30;73.63;101433.21;1821721;78;20884;-80
2022/04/28 02:45:59;;;;;;;5.72;4.42;;;;;;;7.30;73.54;101429.30;1820612;78;20911;-81
2022/04/28 02:48:28;;;;;;;6.00;4.28;;;;;;;7.28;73.65;101435.47;1820530;78;21238;-81
2022/04/28 02:50:58;;;;;;;8.08;5.33;;;;;;;7.28;73.84;101435.02;1821333;78;20903;-81
2022/04/28 02:53:25;;;;;;;5.35;4.30;;;;;;;7.30;73.86;101433.21;1821434;78;21369;-82
2022/04/28 02:55:52;;;;;;;7.03;4.40;;;;;;;7.34;73.99;101432.20;1789706;78;21001;-81
2022/04/28 02:58:19;;;;;;;10.60;4.67;;;;;;;7.37;73.92;101428.64;1821445;78;20931;-81
2022/04/28 03:00:45;;;;;;;6.10;4.55;;;;;;;7.39;73.68;101434.66;1823389;78;21115;-78
2022/04/28 03:03:12;;;;;;;6.05;4.40;;;;;;;7.41;73.85;101435.47;1822039;78;20998;-81
2022/04/28 03:11:14;;;;;;;5.08;4.30;;;;;;;7.57;73.79;101437.09;1825124;78;20105;-81
2022/04/28 03:13:38;;;;;;;10.38;4.50;;;;;;;7.60;73.64;101436.98;1824354;77;21159;-81
2022/04/28 03:16:06;;;;;;;7.62;5.95;;;;;;;7.63;73.37;101435.59;1824750;77;20915;-81
2022/04/28 03:18:53;;;;;;;4.85;4.33;;;;;;;7.64;73.16;101437.28;1822787;77;20931;-80
2022/04/28 03:21:20;;;;;;;7.42;5.12;;;;;;;7.61;73.02;101440.01;1824798;78;20872;-80
2022/04/28 03:23:49;;;;;;;15.23;5.87;;;;;;;7.59;72.86;101446.58;1824793;78;20903;-81
2022/04/28 03:26:15;;;;;;;8.68;4.40;;;;;;;7.57;72.87;101443.63;1825048;78;21212;-81
2022/04/28 03:28:42;;;;;;;5.42;4.92;;;;;;;7.54;73.09;101441.98;1825021;77;21028;-81
2022/04/28 03:31:11;;;;;;;5.92;5.25;;;;;;;7.54;73.45;101446.35;1825017;78;20887;-82
2022/04/28 03:33:48;;;;;;;5.08;4.25;;;;;;;7.56;73.78;101452.34;1772060;78;21263;-81
2022/04/28 03:39:00;;;;;;;5.10;4.60;;;;;;;7.63;74.62;101455.17;1827336;78;21011;-80
2022/04/28 03:41:27;;;;;;;6.53;4.75;;;;;;;7.73;74.92;101457.84;1826851;78;20911;-81
2022/04/28 03:43:55;;;;;;;4.10;3.70;;;;;;;7.83;75.03;101458.39;1827074;78;20888;-79
2022/04/28 03:46:21;;;;;;;9.88;6.53;;;;;;;7.92;74.86;101462.45;1826808;78;21436;-80
2022/04/28 03:48:48;;;;;;;12.80;9.18;;;;;;;8.00;74.43;101469.53;1826068;77;20866;-81
2022/04/28 03:51:16;;;;;;;8.05;5.72;;;;;;;8.10;73.96;101469.61;1827024;78;22454;-80
2022/04/28 03:53:43;;;;;;;9.90;6.50;;;;;;;8.20;73.48;101470.13;1826836;78;20907;-81
2022/04/28 03:56:10;;;;;;;11.95;6.17;;;;;;;8.34;73.15;101475.71;1828548;78;20785;-79
2022/04/28 03:58:36;;;;;;;9.60;5.35;;;;;;;8.50;73.01;101470.33;1828473;77;20971;-78
2022/04/28 04:01:03;;;;;;;12.15;6.47;;;;;;;8.69;72.67;101469.62;1827004;78;20935;-80
2022/04/28 04:03:39;;;;;;;13.53;7.35;;;;;;;8.87;72.20;101472.86;1733499;81;20969;-82
2022/04/28 04:06:07;;;;;;;9.43;6.80;;;;;;;9.09;71.97;101478.52;1695331;84;20928;-80
2022/04/28 04:08:35;;;;;;;7.67;5.95;;;;;;;9.44;71.81;101478.41;1690882;85;20948;-80
2022/04/28 04:11:10;;;;;;;13.32;5.72;;;;;;;9.90;70.99;101479.08;1690779;85;28213;-81
2022/04/28 04:13:38;;;;;;;12.25;7.97;;;;;;;10.37;69.61;101489.72;1690722;85;20916;-82
2022/04/28 04:16:06;;;;;;;14.55;7.37;;;;;;;10.70;67.86;101491.73;1690809;85;20940;-83
2022/04/28 04:18:44;;;;;;;7.25;5.30;;;;;;;10.98;67.05;101486.88;1690232;84;21531;-82
2022/04/28 04:21:16;;;;;;;6.58;5.17;;;;;;;11.27;66.17;101485.06;1690686;85;20991;-81
2022/04/28 04:23:45;;;;;;;7.33;5.03;;;;;;;11.52;65.50;101486.88;1690752;85;20935;-82
2022/04/28 04:26:12;;;;;;;6.87;4.87;;;;;;;11.72;64.69;101487.19;1690896;84;21046;-82
2022/04/28 04:28:39;;;;;;;7.25;5.05;;;;;;;11.91;64.12;101484.48;1692066;85;21323;-78
2022/04/28 04:34:02;;;;;;;6.78;5.25;;;;;;;12.24;63.28;101495.02;1690751;84;20991;-83
2022/04/28 04:36:29;;;;;;;5.35;4.80;;;;;;;12.52;63.10;101501.45;1690641;85;20892;-82
2022/04/28 04:38:56;;;;;;;4.17;3.77;;;;;;;12.75;62.54;101504.61;1690847;84;20901;-81
2022/04/28 04:41:25;;;;;;;5.22;4.72;;;;;;;12.96;61.66;101498.60;1732337;81;21490;-81
2022/04/28 04:43:53;;;;;;;4.72;4.22;;;;;;;13.14;61.50;101504.17;1755014;81;20945;-80
2022/04/28 04:46:21;;;;;;;7.12;3.98;;;;;;;13.40;61.12;101505.33;1821873;78;21372;-81
2022/04/28 04:49:08;;;;;;;7.08;4.17;;;;;;;13.69;59.89;101508.06;1821897;78;20912;-82
2022/04/28 04:51:37;;;;;;;3.85;3.55;;;;;;;14.07;58.72;101509.75;1821862;78;21302;-81
2022/04/28 04:54:08;;;;;;;3.47;3.20;;;;;;;14.52;57.58;101510.98;1821040;78;21242;-81
2022/04/28 04:56:36;;;;;;;5.10;3.35;;;;;;;15.10;56.33;101502.49;1821563;78;20961;-79
2022/04/28 04:59:03;;;;;;;4.87;3.00;;;;;;;15.71;55.30;101498.44;1821784;78;20915;-80
2022/04/28 05:01:30;;;;;;;4.53;2.98;;;;;;;16.34;53.65;101499.88;1821662;78;20888;-80
2022/04/28 05:04:17;;;;;;;4.65;2.75;;;;;;;16.98;51.94;101502.41;1821507;78;20880;-80
2022/04/28 05:06:46;;;;;;;15.13;4.47;;;;;;;17.64;49.95;101505.95;1770083;78;21238;-81
2022/04/28 05:09:16;;;;;;;7.67;3.35;;;;;;;18.19;48.67;101511.03;1821081;78;20966;-81
2022/04/28 05:11:43;;;;;;;2.80;2.60;;;;;;;18.66;46.72;101514.39;1821864;78;20904;-79
2022/04/28 05:14:12;;;;;;;4.83;3.17;;;;;;;19.08;44.35;101513.75;1824323;77;20939;-80
2022/04/28 05:16:40;;;;;;;6.67;2.90;;;;;;;19.49;43.57;101517.45;1824765;77;20955;-80
2022/04/28 05:19:10;;;;;;;5.28;2.75;;;;;;;19.87;42.64;101517.73;1773208;78;21512;-82
2022/04/28 05:21:52;;;;;;;5.25;2.87;;;;;;;20.22;42.47;101513.88;1823555;78;20880;-82
2022/04/28 05:24:32;;;;;;;6.33;3.10;;;;;;;20.46;40.73;101510.06;1777022;78;20931;-80
2022/04/28 05:27:00;;;;;;;4.33;2.80;;;;;;;20.67;40.38;101520.17;1770030;78;20946;-81
2022/04/28 05:29:45;;;;;;;6.25;2.50;;;;;;;21.06;39.88;101524.77;1821710;78;21387;-84
2022/04/28 05:32:14;;;;;;;8.73;3.10;;;;;;;21.50;38.61;101520.75;1820312;78;21243;-82
2022/04/28 05:35:00;;;;;;;8.38;2.72;;;;;;;21.84;37.81;101524.78;1821524;78;20970;-80
2022/04/28 05:37:27;;;;;;;3.77;2.75;;;;;;;22.18;37.04;101526.44;1789695;78;20903;-82
2022/04/28 05:39:54;;;;;;;4.58;2.90;;;;;;;22.52;36.12;101524.09;1821536;78;20946;-82
2022/04/28 05:42:20;;;;;;;8.10;2.75;;;;;;;22.74;35.69;101525.53;1790220;78;20919;-83
2022/04/28 05:47:34;;;;;;;4.28;2.60;;;;;;;23.29;35.38;101531.30;1795150;78;20896;-81
2022/04/28 05:50:01;;;;;;;4.45;2.77;;;;;;;23.59;34.59;101531.91;1822241;78;20942;-80
2022/04/28 05:52:29;;;;;;;2.47;2.27;;;;;;;23.82;33.05;101528.25;1816872;78;20883;-83
2022/04/28 05:54:56;;;;;;;3.33;2.33;;;;;;;24.00;32.57;101525.52;1821889;78;20935;-83
2022/04/28 05:57:23;;;;;;;4.53;2.67;;;;;;;24.22;32.40;101521.47;1791659;78;21854;-81
2022/04/28 05:59:52;;;;;;;2.80;2.60;;;;;;;24.45;32.03;101519.05;1821657;78;21341;-82
2022/04/28 06:02:37;;;;;;;4.80;2.98;;;;;;;24.66;31.82;101528.06;1821978;78;20854;-82
2022/04/28 06:05:08;;;;;;;5.08;2.12;;;;;;;24.88;31.27;101532.47;1821613;78;20951;-82
2022/04/28 06:07:36;;;;;;;3.98;2.60;;;;;;;25.10;31.52;101531.87;1773928;79;20891;-83
2022/04/28 06:10:04;;;;;;;5.45;2.95;;;;;;;25.30;30.39;101527.06;1797426;78;21897;-80
2022/04/28 06:12:32;;;;;;;4.42;2.67;;;;;;;25.36;30.35;101523.69;1797456;79;21077;-82
2022/04/28 06:15:14;;;;;;;2.83;2.62;;;;;;;25.48;30.70;101527.38;1797598;79;21022;-83
2022/04/28 06:17:54;;;;;;;3.70;2.22;;;;;;;25.76;29.96;101523.34;1794415;77;20946;-82
2022/04/28 06:20:22;;;;;;;3.33;2.70;;;;;;;26.11;29.21;101526.67;1797361;79;20931;-82
2022/04/28 06:22:56;;;;;;;8.03;2.37;;;;;;;26.34;29.37;101524.07;1795962;78;21103;-83
2022/04/28 06:25:26;;;;;;;2.20;2.00;;;;;;;26.56;27.95;101521.67;1797459;79;21467;-83
2022/04/28 06:27:54;;;;;;;2.83;2.08;;;;;;;26.66;27.44;101521.80;1797552;79;20935;-82
2022/04/28 06:30:21;;;;;;;3.65;2.30;;;;;;;26.64;27.34;101523.82;1798058;79;20935;-82
2022/04/28 06:32:52;;;;;;;3.08;2.30;;;;;;;26.66;27.46;101531.21;1797569;79;20856;-82
2022/04/28 06:35:25;;;;;;;3.37;2.72;;;;;;;26.73;27.64;101532.69;1796755;79;26926;-82
2022/04/28 06:37:51;;;;;;;5.47;1.87;;;;;;;26.90;27.98;101530.73;1797515;77;20887;-81
2022/04/28 06:40:18;;;;;;;2.77;1.80;;;;;;;27.04;27.52;101529.98;1797989;78;21364;-81
2022/04/28 06:42:50;;;;;;;2.27;1.50;;;;;;;27.25;27.42;101525.83;1797966;79;20958;-82
2022/04/28 06:45:24;;;;;;;3.40;1.32;;;;;;;27.57;26.22;101520.70;1797733;78;20982;-81
2022/04/28 06:47:56;;;;;;;1.72;1.50;;;;;;;27.85;25.64;101520.11;1797840;77;22314;-82
2022/04/28 06:50:26;;;;;;;4.10;1.42;;;;;;;27.87;24.41;101517.55;1793284;78;20883;-83
2022/04/28 06:53:08;;;;;;;4.62;1.25;;;;;;;27.58;25.46;101522.88;1732558;82;20962;-82
2022/04/28 06:55:36;;;;;;;2.42;1.30;;;;;;;27.50;25.52;101521.07;1732023;80;20966;-82
2022/04/28 06:58:04;;;;;;;1.60;0.93;;;;;;;27.55;24.78;101518.69;1732365;80;21454;-81
2022/04/28 07:00:33;;;;;;;2.20;1.27;;;;;;;27.41;25.41;101510.91;1732963;82;21491;-83
2022/04/28 07:03:01;;;;;;;1.27;0.85;;;;;;;27.54;25.55;101512.13;1733624;82;20899;-81
2022/04/28 07:05:31;;;;;;;1.10;1.00;;;;;;;27.64;24.88;101522.16;1733247;82;20910;-82
2022/04/28 07:07:59;;;;;;;1.62;1.02;;;;;;;27.69;25.56;101522.43;1749200;81;20944;-83
2022/04/28 07:10:29;;;;;;;2.83;0.93;;;;;;;27.83;24.48;101513.52;1753457;81;20909;-82
2022/04/28 07:12:58;;;;;;;2.30;1.10;;;;;;;27.88;25.04;101519.73;1753561;81;21489;-83
2022/04/28 07:15:45;;;;;;;1.22;0.70;;;;;;;28.05;24.23;101518.55;1753174;81;21023;-80
2022/04/28 07:18:22;;;;;;;1.60;0.70;;;;;;;28.15;23.16;101518.77;1734067;81;21043;-80
2022/04/28 07:21:35;;;;;;;1.45;0.85;;;;;;;28.32;24.27;101514.86;1885650;75;22374;-82
2022/04/28 07:24:03;;;;;;;2.25;0.70;;;;;;;28.46;22.47;101521.30;1831955;77;20875;-82
2022/04/28 07:26:31;;;;;;;0.47;0.40;;;;;;;28.48;23.16;101511.15;1863183;77;21397;-81
2022/04/28 07:29:00;;;;;;;2.75;0.60;;;;;;;28.60;22.93;101522.32;1862772;77;22010;-80
2022/04/28 07:31:39;;;;;;;0.75;0.53;;;;;;;28.49;21.61;101523.11;1836780;76;20864;-80
2022/04/28 07:34:12;;;;;;;1.62;0.57;;;;;;;28.09;22.46;101530.64;1862662;77;20926;-82
2022/04/28 07:36:57;;;;;;;1.32;0.55;;;;;;;28.13;22.79;101516.80;1862550;77;20985;-82
2022/04/28 07:39:45;;;;;;;0.42;0.42;;;;;;;28.46;22.23;101519.42;1862339;77;21282;-81
2022/04/28 07:42:17;;;;;;;2.30;0.60;;;;;;;28.82;21.47;101511.88;1858864;77;21000;-81
2022/04/28 07:44:45;;;;;;;1.00;0.50;;;;;;;29.16;21.76;101513.61;1862169;77;20947;-80
2022/04/28 07:47:14;;;;;;;2.37;0.70;;;;;;;29.46;21.72;101519.19;1862411;77;21403;-81
2022/04/28 07:49:48;;;;;;;0.57;0.45;;;;;;;29.52;21.08;101508.92;1858893;77;20970;-80
2022/04/28 07:52:16;;;;;;;1.00;0.50;;;;;;;29.59;20.26;101502.22;1862272;77;21179;-83
2022/04/28 07:54:45;;;;;;;2.45;0.90;;;;;;;29.72;20.74;101500.17;1862211;76;20835;-82
2022/04/28 07:57:12;;;;;;;3.42;0.35;;;;;;;29.82;20.73;101503.38;1831375;77;20863;-80
2022/04/28 07:59:40;;;;;;;1.30;0.60;;;;;;;29.69;19.82;101498.70;1862347;77;20973;-82
2022/04/28 08:02:11;;;;;;;1.65;0.50;;;;;;;29.46;20.00;101498.06;1862515;76;20858;-83
2022/04/28 08:04:38;;;;;;;1.57;0.50;;;;;;;29.29;19.93;101503.75;1862505;77;21317;-81
2022/04/28 08:07:05;;;;;;;0.50;0.40;;;;;;;29.40;19.78;101494.29;1862527;77;20871;-81
2022/04/28 08:09:35;;;;;;;0.93;0.57;;;;;;;29.47;19.41;101491.64;1862487;77;20923;-80
2022/04/28 08:12:02;;;;;;;0.90;0.60;;;;;;;29.26;20.93;101493.34;1862391;77;20951;-80
2022/04/28 08:14:30;;;;;;;0.60;0.40;;;;;;;29.12;19.44;101494.23;1862431;76;20970;-81
2022/04/28 08:16:57;;;;;;;1.25;0.20;;;;;;;29.02;20.59;101491.01;1862432;77;21357;-81
2022/04/28 08:19:26;;;;;;;0.68;0.40;;;;;;;29.09;19.30;101490.58;1861921;77;20902;-79
2022/04/28 08:22:01;;;;;;;2.15;0.40;;;;;;;28.94;19.79;101488.73;1852685;77;21387;-80
2022/04/28 08:24:29;;;;;;;1.77;0.40;;;;;;;28.92;20.61;101488.09;1853157;77;20893;-79
2022/04/28 08:26:58;;;;;;;3.67;0.60;;;;;;;29.12;20.11;101487.48;1827218;77;21027;-81
2022/04/28 08:29:25;;;;;;;2.72;0.57;;;;;;;29.20;19.43;101475.72;1853645;76;21264;-82
2022/04/28 08:31:55;;;;;;;2.40;0.40;;;;;;;28.88;18.53;101484.13;1852857;76;20869;-80
2022/04/28 08:34:22;;;;;;;2.37;0.35;;;;;;;28.36;19.67;101485.14;1852981;77;20889;-82
2022/04/28 08:36:50;;;;;;;1.15;0.47;;;;;;;28.06;19.97;101482.48;1852457;77;20917;-82
2022/04/28 08:39:18;;;;;;;4.50;0.90;;;;;;;28.18;20.69;101482.00;1825422;77;20890;-82
2022/04/28 08:41:46;;;;;;;2.15;0.70;;;;;;;28.35;21.58;101483.48;1851686;77;21122;-80
2022/04/28 08:44:25;;;;;;;1.52;0.88;;;;;;;28.63;20.77;101494.42;1851421;77;21469;-80
2022/04/28 08:46:55;;;;;;;2.17;0.60;;;;;;;28.83;19.29;101489.76;1851354;77;20877;-80
2022/04/28 08:49:30;;;;;;;0.42;0.40;;;;;;;29.00;18.71;101476.34;1850800;77;20889;-80
2022/04/28 08:51:59;;;;;;;2.98;0.40;;;;;;;28.96;19.17;101487.72;1827371;77;20964;-79
2022/04/28 08:54:28;;;;;;;0.70;0.33;;;;;;;28.84;19.45;101490.10;1851697;77;22044;-81
2022/04/28 08:56:57;;;;;;;2.50;0.30;;;;;;;28.57;19.46;101481.70;1851379;76;21331;-81
2022/04/28 08:59:25;;;;;;;1.70;0.50;;;;;;;28.18;18.56;101480.14;1851603;77;21375;-81
2022/04/28 09:01:54;;;;;;;0.70;0.30;;;;;;;27.80;19.50;101490.16;1851390;77;21315;-81
2022/04/28 09:04:40;;;;;;;2.90;0.50;;;;;;;27.65;20.20;101481.52;1851508;77;20925;-82
2022/04/28 09:07:40;;;;;;;3.70;0.42;;;;;;;27.58;20.36;101481.94;1851545;77;21215;-79
2022/04/28 09:10:33;;;;;;;1.07;0.40;;;;;;;27.62;20.95;101483.25;1851083;77;20909;-81
2022/04/28 09:16:04;;;;;;;1.40;0.30;;;;;;;27.84;20.92;101477.50;1852270;76;20917;-83
2022/04/28 09:18:32;;;;;;;1.25;0.40;;;;;;;28.10;19.64;101478.39;1851217;77;20936;-83
2022/04/28 09:21:00;;;;;;;3.00;0.65;;;;;;;28.21;19.03;101474.36;1768415;77;20884;-84
2022/04/28 09:23:30;;;;;;;0.68;0.65;;;;;;;28.36;18.61;101473.52;1832117;77;20935;-83
2022/04/28 09:25:59;;;;;;;1.80;0.50;;;;;;;28.39;18.51;101476.69;1858737;76;20875;-82
2022/04/28 09:28:26;;;;;;;2.70;0.60;;;;;;;28.42;18.35;101477.65;1861304;77;20959;-82
2022/04/28 09:30:55;;;;;;;0.85;0.85;;;;;;;28.38;18.73;101474.17;1830424;77;20867;-82
2022/04/28 09:33:40;;;;;;;0.30;0.30;;;;;;;28.45;18.29;101475.91;1860168;77;21233;-83
2022/04/28 09:36:22;;;;;;;0.68;0.55;;;;;;;28.42;19.02;101470.91;1857101;77;20939;-81
2022/04/28 09:38:55;;;;;;;1.95;0.50;;;;;;;28.48;18.08;101467.97;1858545;76;20879;-82
2022/04/28 09:44:12;;;;;;;0.68;0.68;;;;;;;28.46;18.22;101464.63;1859489;77;20966;-82
2022/04/28 09:46:44;;;;;;;2.42;0.40;;;;;;;28.69;18.82;101459.92;1860059;76;20903;-83
2022/04/28 09:49:15;;;;;;;0.88;0.30;;;;;;;28.93;18.95;101467.34;1829389;77;20915;-81
2022/04/28 09:51:59;;;;;;;3.12;0.65;;;;;;;29.06;18.22;101463.91;1860084;76;20966;-81
2022/04/28 09:54:29;;;;;;;0.20;0.20;;;;;;;28.92;17.58;101461.60;1858911;77;21396;-81
2022/04/28 09:56:58;;;;;;;2.67;0.62;;;;;;;28.74;17.99;101466.09;1824209;78;20993;-82
2022/04/28 09:59:28;;;;;;;2.30;0.55;;;;;;;28.68;17.50;101463.66;1826833;78;22205;-82
2022/04/28 10:01:57;;;;;;;1.47;0.40;;;;;;;28.80;18.35;101462.63;1826909;78;20911;-83
2022/04/28 10:04:24;;;;;;;1.45;0.50;;;;;;;28.84;18.84;101457.70;1772726;78;21405;-82
2022/04/28 10:07:00;;;;;;;1.95;0.80;;;;;;;28.94;17.50;101456.33;1824809;78;20977;-81
2022/04/28 10:09:31;;;;;;;2.27;0.47;;;;;;;28.84;17.56;101458.53;1827456;78;21471;-83
2022/04/28 10:12:00;;;;;;;1.05;0.35;;;;;;;28.72;18.00;101460.05;1826712;78;22254;-82
2022/04/28 10:14:30;;;;;;;0.20;0.17;;;;;;;28.73;18.18;101467.13;1827663;78;20994;-81
2022/04/28 10:16:57;;;;;;;2.08;0.60;;;;;;;28.77;17.46;101460.33;1797546;78;20982;-81
2022/04/28 10:19:32;;;;;;;3.62;0.45;;;;;;;28.96;18.61;101464.24;1827765;78;20934;-82
2022/04/28 10:22:10;;;;;;;1.25;0.33;;;;;;;28.99;17.24;101469.77;1827890;78;21341;-81
2022/04/28 10:33:13;;;;;;;1.45;0.30;;;;;;;28.99;16.79;101472.47;1828013;78;20895;-82
2022/04/28 10:35:50;;;;;;;1.90;0.25;;;;;;;28.96;16.44;101468.81;1824707;78;20879;-80
2022/04/28 10:38:31;;;;;;;2.52;0.20;;;;;;;28.94;15.24;101471.17;1827890;78;21275;-81
2022/04/28 10:41:08;;;;;;;2.35;0.35;;;;;;;28.91;16.06;101466.70;1827325;78;20989;-81
2022/04/28 10:43:42;;;;;;;0.47;0.20;;;;;;;28.82;16.78;101470.55;1827838;78;20887;-81
2022/04/28 10:46:22;;;;;;;1.12;0.25;;;;;;;28.61;16.91;101469.48;1827576;78;20934;-81
2022/04/28 10:48:53;;;;;;;0.45;0.40;;;;;;;28.54;17.28;101460.99;1827883;78;20938;-80
2022/04/28 10:51:23;;;;;;;3.58;0.45;;;;;;;28.59;17.99;101464.81;1827539;78;22124;-81
2022/04/28 10:54:11;;;;;;;0.85;0.85;;;;;;;28.67;18.57;101466.54;1827598;78;20887;-81
2022/04/28 10:56:58;;;;;;;3.10;0.40;;;;;;;28.66;18.73;101467.59;1827204;78;20950;-81
2022/04/28 10:59:34;;;;;;;1.17;0.45;;;;;;;28.64;18.78;101466.41;1827199;78;20848;-81
2022/04/28 11:02:25;;;;;;;0.90;0.20;;;;;;;28.55;17.11;101456.77;1827513;78;21428;-80
2022/04/28 11:05:02;;;;;;;0.40;0.40;;;;;;;28.25;17.26;101459.47;1678086;83;20951;-80
2022/04/28 11:07:31;;;;;;;2.10;0.30;;;;;;;27.89;17.87;101456.72;1676163;84;21018;-82
2022/04/28 11:10:07;;;;;;;1.17;0.30;;;;;;;27.63;17.52;101456.61;1676049;84;20942;-82
2022/04/28 11:12:37;;;;;;;1.50;0.40;;;;;;;27.45;18.46;101454.27;1676208;84;20975;-81
2022/04/28 11:15:12;;;;;;;3.85;0.40;;;;;;;27.46;18.56;101452.42;1675511;84;20958;-83
2022/04/28 11:17:43;;;;;;;1.20;0.40;;;;;;;27.46;19.40;101445.17;1676104;84;21279;-83
2022/04/28 11:20:15;;;;;;;0.57;0.30;;;;;;;27.66;19.90;101446.00;1676205;84;21007;-81
2022/04/28 11:22:54;;;;;;;0.98;0.55;;;;;;;27.84;18.08;101443.80;1675477;84;20970;-81
2022/04/28 11:25:22;;;;;;;0.50;0.40;;;;;;;27.59;17.74;101449.94;1676674;85;21022;-82
2022/04/28 11:27:51;;;;;;;0.57;0.50;;;;;;;27.14;18.37;101447.61;1676595;84;20943;-83
2022/04/28 11:30:22;;;;;;;3.47;0.30;;;;;;;26.78;19.13;101447.38;1676519;84;21158;-82
2022/04/28 11:32:58;;;;;;;2.58;0.40;;;;;;;26.63;18.67;101449.48;1650751;85;21050;-82
2022/04/28 11:35:35;;;;;;;1.27;0.28;;;;;;;26.36;18.87;101442.70;1676588;84;20883;-81
2022/04/28 11:38:02;;;;;;;0.80;0.40;;;;;;;26.07;19.65;101444.69;1676366;85;20934;-82
2022/04/28 11:40:33;;;;;;;1.17;0.40;;;;;;;25.88;19.83;101434.33;1677553;83;21010;-81
2022/04/28 11:43:01;;;;;;;1.27;0.70;;;;;;;25.92;19.96;101439.70;1800918;78;21243;-80
2022/04/28 11:45:31;;;;;;;1.52;0.35;;;;;;;25.86;20.16;101429.12;1828100;78;20982;-81
2022/04/28 11:48:00;;;;;;;0.60;0.45;;;;;;;25.69;19.76;101435.55;1828766;78;20962;-79
2022/04/28 11:50:30;;;;;;;1.65;0.50;;;;;;;25.39;21.24;101429.38;1828087;78;20989;-81
2022/04/28 11:53:07;;;;;;;0.60;0.28;;;;;;;25.28;21.03;101417.65;1826630;78;21010;-81
2022/04/28 11:55:38;;;;;;;1.45;0.70;;;;;;;25.16;21.26;101420.30;1826587;78;21147;-82
2022/04/28 11:58:04;;;;;;;1.65;0.57;;;;;;;25.06;22.17;101419.13;1826630;78;21019;-81
2022/04/28 12:00:44;;;;;;;1.95;0.72;;;;;;;24.97;21.78;101407.55;1826731;78;20879;-82
2022/04/28 12:03:27;;;;;;;0.62;0.30;;;;;;;24.80;21.33;101405.35;1826552;78;20938;-82
2022/04/28 12:05:54;;;;;;;0.70;0.30;;;;;;;24.57;20.78;101412.38;1826805;78;20855;-81
2022/04/28 12:08:24;;;;;;;0.82;0.30;;;;;;;24.17;21.68;101405.86;1826081;78;20929;-81
2022/04/28 12:19:19;;;;;;;1.02;0.40;;;;;;;23.48;22.70;101396.95;1801625;78;20990;-81
2022/04/28 12:19:24;;;;;;;0.90;0.40;;;;;;;23.44;22.85;101407.12;1823039;78;20931;-81
2022/04/28 12:21:52;;;;;;;1.60;0.28;;;;;;;23.40;22.29;101399.56;1821371;78;20877;-82
2022/04/28 12:24:19;;;;;;;1.10;0.30;;;;;;;23.38;23.32;101399.70;1816773;78;20979;-82
2022/04/28 12:26:49;;;;;;;1.07;0.37;;;;;;;23.28;23.35;101388.28;1816877;78;20917;-81